sensor_id;sensor_type;location;lat;lon;timestamp;temperature;humidity
16267;DHT22;8241;48.786;9.250;2023-05-27T00:02:08;17.10;90.20
16267;DHT22;8241;48.786;9.250;2023-05-27T00:04:34;17.10;90.10
16267;DHT22;8241;48.786;9.250;2023-05-27T00:07:03;17.10;90.10
16267;DHT22;8241;48.786;9.250;2023-05-27T00:09:30;17.10;90.20
16267;DHT22;8241;48.786;9.250;2023-05-27T00:11:57;17.20;90.20
16267;DHT22;8241;48.786;9.250;2023-05-27T00:14:26;17.20;90.20
16267;DHT22;8241;48.786;9.250;2023-05-27T00:16:54;17.20;90.10
16267;DHT22;8241;48.786;9.250;2023-05-27T00:19:22;17.20;90.10
16267;DHT22;8241;48.786;9.250;2023-05-27T00:21:49;17.10;89.90
16267;DHT22;8241;48.786;9.250;2023-05-27T00:24:20;17.10;89.80
16267;DHT22;8241;48.786;9.250;2023-05-27T00:26:47;17.10;89.90
16267;DHT22;8241;48.786;9.250;2023-05-27T00:29:16;17.10;89.60
16267;DHT22;8241;48.786;9.250;2023-05-27T00:31:43;17.00;90.00
16267;DHT22;8241;48.786;9.250;2023-05-27T00:34:13;16.90;90.00
16267;DHT22;8241;48.786;9.250;2023-05-27T00:36:40;16.90;89.70
16267;DHT22;8241;48.786;9.250;2023-05-27T00:39:07;16.90;89.80
16267;DHT22;8241;48.786;9.250;2023-05-27T00:41:34;16.90;90.00
16267;DHT22;8241;48.786;9.250;2023-05-27T00:44:01;16.80;90.10
16267;DHT22;8241;48.786;9.250;2023-05-27T00:46:29;16.80;89.70
16267;DHT22;8241;48.786;9.250;2023-05-27T00:48:56;16.80;90.00
16267;DHT22;8241;48.786;9.250;2023-05-27T00:51:24;16.80;90.10
16267;DHT22;8241;48.786;9.250;2023-05-27T00:53:51;16.70;90.50
16267;DHT22;8241;48.786;9.250;2023-05-27T00:56:18;16.70;90.10
16267;DHT22;8241;48.786;9.250;2023-05-27T00:58:46;16.70;90.10
16267;DHT22;8241;48.786;9.250;2023-05-27T01:01:13;16.70;90.10
16267;DHT22;8241;48.786;9.250;2023-05-27T01:03:41;16.70;89.80
16267;DHT22;8241;48.786;9.250;2023-05-27T01:06:17;16.60;89.70
16267;DHT22;8241;48.786;9.250;2023-05-27T01:08:54;16.60;90.20
16267;DHT22;8241;48.786;9.250;2023-05-27T01:11:28;16.60;90.60
16267;DHT22;8241;48.786;9.250;2023-05-27T01:13:59;16.60;90.40
16267;DHT22;8241;48.786;9.250;2023-05-27T01:16:28;16.60;90.30
16267;DHT22;8241;48.786;9.250;2023-05-27T01:18:57;16.50;90.40
16267;DHT22;8241;48.786;9.250;2023-05-27T01:21:27;16.50;90.50
16267;DHT22;8241;48.786;9.250;2023-05-27T01:24:02;16.40;90.40
16267;DHT22;8241;48.786;9.250;2023-05-27T01:26:29;16.40;90.50
16267;DHT22;8241;48.786;9.250;2023-05-27T01:28:56;16.40;90.80
16267;DHT22;8241;48.786;9.250;2023-05-27T01:31:27;16.30;90.70
16267;DHT22;8241;48.786;9.250;2023-05-27T01:34:00;16.30;90.90
16267;DHT22;8241;48.786;9.250;2023-05-27T01:36:31;16.30;90.90
16267;DHT22;8241;48.786;9.250;2023-05-27T01:39:02;16.20;90.90
16267;DHT22;8241;48.786;9.250;2023-05-27T01:41:30;16.20;91.20
16267;DHT22;8241;48.786;9.250;2023-05-27T01:43:58;16.20;91.20
16267;DHT22;8241;48.786;9.250;2023-05-27T01:46:30;16.10;91.20
16267;DHT22;8241;48.786;9.250;2023-05-27T01:48:58;16.10;91.30
16267;DHT22;8241;48.786;9.250;2023-05-27T01:51:25;16.00;91.20
16267;DHT22;8241;48.786;9.250;2023-05-27T01:53:52;16.00;91.20
16267;DHT22;8241;48.786;9.250;2023-05-27T01:56:20;16.00;91.40
16267;DHT22;8241;48.786;9.250;2023-05-27T01:58:48;16.00;91.30
16267;DHT22;8241;48.786;9.250;2023-05-27T02:01:15;15.90;91.40
16267;DHT22;8241;48.786;9.250;2023-05-27T02:03:45;15.90;91.50
16267;DHT22;8241;48.786;9.250;2023-05-27T02:06:11;15.90;91.60
16267;DHT22;8241;48.786;9.250;2023-05-27T02:08:41;15.90;91.60
16267;DHT22;8241;48.786;9.250;2023-05-27T02:11:08;15.80;91.80
16267;DHT22;8241;48.786;9.250;2023-05-27T02:13:37;15.80;91.90
16267;DHT22;8241;48.786;9.250;2023-05-27T02:16:04;15.70;91.90
16267;DHT22;8241;48.786;9.250;2023-05-27T02:18:32;15.60;92.10
16267;DHT22;8241;48.786;9.250;2023-05-27T02:21:00;15.60;92.10
16267;DHT22;8241;48.786;9.250;2023-05-27T02:23:31;15.50;92.10
16267;DHT22;8241;48.786;9.250;2023-05-27T02:25:58;15.50;92.20
16267;DHT22;8241;48.786;9.250;2023-05-27T02:28:27;15.50;92.50
16267;DHT22;8241;48.786;9.250;2023-05-27T02:30:56;15.50;92.60
16267;DHT22;8241;48.786;9.250;2023-05-27T02:33:23;15.50;92.70
16267;DHT22;8241;48.786;9.250;2023-05-27T02:35:50;15.40;92.70
16267;DHT22;8241;48.786;9.250;2023-05-27T02:38:17;15.40;92.70
16267;DHT22;8241;48.786;9.250;2023-05-27T02:40:44;15.40;92.80
16267;DHT22;8241;48.786;9.250;2023-05-27T02:43:13;15.40;92.90
16267;DHT22;8241;48.786;9.250;2023-05-27T02:45:40;15.30;92.80
16267;DHT22;8241;48.786;9.250;2023-05-27T02:48:12;15.30;92.70
16267;DHT22;8241;48.786;9.250;2023-05-27T02:50:39;15.40;92.60
16267;DHT22;8241;48.786;9.250;2023-05-27T02:53:06;15.30;92.50
16267;DHT22;8241;48.786;9.250;2023-05-27T02:55:33;15.30;92.60
16267;DHT22;8241;48.786;9.250;2023-05-27T02:58:00;15.30;92.80
16267;DHT22;8241;48.786;9.250;2023-05-27T03:00:29;15.30;92.90
16267;DHT22;8241;48.786;9.250;2023-05-27T03:02:56;15.20;93.30
16267;DHT22;8241;48.786;9.250;2023-05-27T03:05:25;15.20;93.10
16267;DHT22;8241;48.786;9.250;2023-05-27T03:07:52;15.20;93.00
16267;DHT22;8241;48.786;9.250;2023-05-27T03:10:19;15.10;93.00
16267;DHT22;8241;48.786;9.250;2023-05-27T03:12:46;15.10;93.00
16267;DHT22;8241;48.786;9.250;2023-05-27T03:15:13;15.10;93.00
16267;DHT22;8241;48.786;9.250;2023-05-27T03:17:40;15.00;93.00
16267;DHT22;8241;48.786;9.250;2023-05-27T03:20:09;15.00;93.10
16267;DHT22;8241;48.786;9.250;2023-05-27T03:22:38;15.00;93.10
16267;DHT22;8241;48.786;9.250;2023-05-27T03:25:06;15.00;93.10
16267;DHT22;8241;48.786;9.250;2023-05-27T03:27:33;14.90;93.10
16267;DHT22;8241;48.786;9.250;2023-05-27T03:30:03;14.80;93.40
16267;DHT22;8241;48.786;9.250;2023-05-27T03:32:32;14.80;93.40
16267;DHT22;8241;48.786;9.250;2023-05-27T03:35:02;14.80;93.60
16267;DHT22;8241;48.786;9.250;2023-05-27T03:37:28;14.80;93.60
16267;DHT22;8241;48.786;9.250;2023-05-27T03:40:02;14.80;93.60
16267;DHT22;8241;48.786;9.250;2023-05-27T03:42:31;14.80;93.60
16267;DHT22;8241;48.786;9.250;2023-05-27T03:44:59;14.90;93.70
16267;DHT22;8241;48.786;9.250;2023-05-27T03:47:29;14.80;93.60
16267;DHT22;8241;48.786;9.250;2023-05-27T03:49:55;14.80;93.60
16267;DHT22;8241;48.786;9.250;2023-05-27T03:52:23;14.80;93.60
16267;DHT22;8241;48.786;9.250;2023-05-27T03:54:50;14.80;93.50
16267;DHT22;8241;48.786;9.250;2023-05-27T03:57:18;14.80;93.50
16267;DHT22;8241;48.786;9.250;2023-05-27T03:59:45;14.80;93.50
16267;DHT22;8241;48.786;9.250;2023-05-27T04:02:12;14.80;93.50
16267;DHT22;8241;48.786;9.250;2023-05-27T04:04:38;14.80;93.50
16267;DHT22;8241;48.786;9.250;2023-05-27T04:07:05;14.80;93.60
16267;DHT22;8241;48.786;9.250;2023-05-27T04:09:32;14.80;93.80
16267;DHT22;8241;48.786;9.250;2023-05-27T04:11:59;14.70;93.80
16267;DHT22;8241;48.786;9.250;2023-05-27T04:14:29;14.70;93.90
16267;DHT22;8241;48.786;9.250;2023-05-27T04:16:56;14.70;94.00
16267;DHT22;8241;48.786;9.250;2023-05-27T04:19:23;14.70;93.90
16267;DHT22;8241;48.786;9.250;2023-05-27T04:21:50;14.70;94.00
16267;DHT22;8241;48.786;9.250;2023-05-27T04:24:17;14.70;94.00
16267;DHT22;8241;48.786;9.250;2023-05-27T04:26:45;14.70;94.00
16267;DHT22;8241;48.786;9.250;2023-05-27T04:29:17;14.80;93.90
16267;DHT22;8241;48.786;9.250;2023-05-27T04:31:47;14.80;93.90
16267;DHT22;8241;48.786;9.250;2023-05-27T04:34:18;14.80;93.90
16267;DHT22;8241;48.786;9.250;2023-05-27T04:36:46;14.80;93.90
16267;DHT22;8241;48.786;9.250;2023-05-27T04:39:18;14.90;94.10
16267;DHT22;8241;48.786;9.250;2023-05-27T04:41:46;14.90;94.10
16267;DHT22;8241;48.786;9.250;2023-05-27T04:44:24;14.90;94.10
16267;DHT22;8241;48.786;9.250;2023-05-27T04:46:56;15.00;94.30
16267;DHT22;8241;48.786;9.250;2023-05-27T04:49:26;15.00;94.40
16267;DHT22;8241;48.786;9.250;2023-05-27T04:51:54;15.00;94.40
16267;DHT22;8241;48.786;9.250;2023-05-27T04:54:21;15.10;94.30
16267;DHT22;8241;48.786;9.250;2023-05-27T04:56:50;15.10;94.20
16267;DHT22;8241;48.786;9.250;2023-05-27T04:59:21;15.10;94.20
16267;DHT22;8241;48.786;9.250;2023-05-27T05:01:57;15.10;94.20
16267;DHT22;8241;48.786;9.250;2023-05-27T05:04:45;15.20;94.10
16267;DHT22;8241;48.786;9.250;2023-05-27T05:07:16;15.20;94.30
16267;DHT22;8241;48.786;9.250;2023-05-27T05:09:43;15.20;94.30
16267;DHT22;8241;48.786;9.250;2023-05-27T05:12:17;15.20;94.30
16267;DHT22;8241;48.786;9.250;2023-05-27T05:14:47;15.30;94.30
16267;DHT22;8241;48.786;9.250;2023-05-27T05:17:16;15.30;94.30
16267;DHT22;8241;48.786;9.250;2023-05-27T05:19:43;15.30;94.20
16267;DHT22;8241;48.786;9.250;2023-05-27T05:22:11;15.40;93.90
16267;DHT22;8241;48.786;9.250;2023-05-27T05:24:41;15.50;93.90
16267;DHT22;8241;48.786;9.250;2023-05-27T05:27:09;15.60;93.70
16267;DHT22;8241;48.786;9.250;2023-05-27T05:29:40;15.60;93.50
16267;DHT22;8241;48.786;9.250;2023-05-27T05:32:09;15.70;93.70
16267;DHT22;8241;48.786;9.250;2023-05-27T05:34:39;15.80;93.50
16267;DHT22;8241;48.786;9.250;2023-05-27T05:37:09;15.90;93.20
16267;DHT22;8241;48.786;9.250;2023-05-27T05:39:36;15.90;92.80
16267;DHT22;8241;48.786;9.250;2023-05-27T05:42:06;15.90;92.70
16267;DHT22;8241;48.786;9.250;2023-05-27T05:44:33;16.00;92.70
16267;DHT22;8241;48.786;9.250;2023-05-27T05:47:01;16.10;92.60
16267;DHT22;8241;48.786;9.250;2023-05-27T05:49:28;16.10;92.50
16267;DHT22;8241;48.786;9.250;2023-05-27T05:51:57;16.20;92.50
16267;DHT22;8241;48.786;9.250;2023-05-27T05:54:24;16.30;92.50
16267;DHT22;8241;48.786;9.250;2023-05-27T05:56:54;16.30;92.30
16267;DHT22;8241;48.786;9.250;2023-05-27T05:59:21;16.50;92.30
16267;DHT22;8241;48.786;9.250;2023-05-27T06:01:48;16.60;92.20
16267;DHT22;8241;48.786;9.250;2023-05-27T06:04:18;16.70;92.20
16267;DHT22;8241;48.786;9.250;2023-05-27T06:06:46;16.90;91.80
16267;DHT22;8241;48.786;9.250;2023-05-27T06:09:33;17.00;91.60
16267;DHT22;8241;48.786;9.250;2023-05-27T06:12:07;17.20;91.00
16267;DHT22;8241;48.786;9.250;2023-05-27T06:14:42;17.40;90.70
16267;DHT22;8241;48.786;9.250;2023-05-27T06:17:14;17.50;90.40
16267;DHT22;8241;48.786;9.250;2023-05-27T06:19:41;17.70;90.30
16267;DHT22;8241;48.786;9.250;2023-05-27T06:22:08;17.90;90.00
16267;DHT22;8241;48.786;9.250;2023-05-27T06:24:55;18.20;89.80
16267;DHT22;8241;48.786;9.250;2023-05-27T06:27:32;18.40;88.10
16267;DHT22;8241;48.786;9.250;2023-05-27T06:29:58;18.60;87.70
16267;DHT22;8241;48.786;9.250;2023-05-27T06:32:32;18.80;87.20
16267;DHT22;8241;48.786;9.250;2023-05-27T06:34:59;19.00;86.40
16267;DHT22;8241;48.786;9.250;2023-05-27T06:37:26;19.10;86.20
16267;DHT22;8241;48.786;9.250;2023-05-27T06:39:54;19.10;85.60
16267;DHT22;8241;48.786;9.250;2023-05-27T06:42:22;19.20;85.10
16267;DHT22;8241;48.786;9.250;2023-05-27T06:45:10;19.30;83.90
16267;DHT22;8241;48.786;9.250;2023-05-27T06:47:38;19.50;84.50
16267;DHT22;8241;48.786;9.250;2023-05-27T06:50:06;20.00;83.60
16267;DHT22;8241;48.786;9.250;2023-05-27T06:52:33;20.60;81.80
16267;DHT22;8241;48.786;9.250;2023-05-27T06:55:20;21.20;80.00
16267;DHT22;8241;48.786;9.250;2023-05-27T06:58:05;21.70;78.00
16267;DHT22;8241;48.786;9.250;2023-05-27T07:00:44;22.40;76.00
16267;DHT22;8241;48.786;9.250;2023-05-27T07:03:34;22.90;74.60
16267;DHT22;8241;48.786;9.250;2023-05-27T07:06:02;23.20;73.00
16267;DHT22;8241;48.786;9.250;2023-05-27T07:08:37;23.60;72.50
16267;DHT22;8241;48.786;9.250;2023-05-27T07:11:13;24.00;72.20
16267;DHT22;8241;48.786;9.250;2023-05-27T07:13:41;24.50;70.80
16267;DHT22;8241;48.786;9.250;2023-05-27T07:16:09;25.10;70.30
16267;DHT22;8241;48.786;9.250;2023-05-27T07:18:36;25.50;68.20
16267;DHT22;8241;48.786;9.250;2023-05-27T07:21:05;25.60;67.10
16267;DHT22;8241;48.786;9.250;2023-05-27T07:23:32;25.80;67.50
16267;DHT22;8241;48.786;9.250;2023-05-27T07:26:19;25.70;67.40
16267;DHT22;8241;48.786;9.250;2023-05-27T07:28:49;25.60;68.50
16267;DHT22;8241;48.786;9.250;2023-05-27T07:31:27;25.70;67.90
16267;DHT22;8241;48.786;9.250;2023-05-27T07:33:59;25.60;67.80
16267;DHT22;8241;48.786;9.250;2023-05-27T07:36:26;25.60;69.00
16267;DHT22;8241;48.786;9.250;2023-05-27T07:38:53;25.80;68.20
16267;DHT22;8241;48.786;9.250;2023-05-27T07:41:21;26.00;67.70
16267;DHT22;8241;48.786;9.250;2023-05-27T07:43:49;26.00;67.10
16267;DHT22;8241;48.786;9.250;2023-05-27T07:46:16;25.80;67.80
16267;DHT22;8241;48.786;9.250;2023-05-27T07:48:43;25.90;66.50
16267;DHT22;8241;48.786;9.250;2023-05-27T07:51:12;25.80;68.30
16267;DHT22;8241;48.786;9.250;2023-05-27T07:53:41;25.80;68.00
16267;DHT22;8241;48.786;9.250;2023-05-27T07:56:09;26.00;67.60
16267;DHT22;8241;48.786;9.250;2023-05-27T07:58:38;26.50;66.80
16267;DHT22;8241;48.786;9.250;2023-05-27T08:01:12;26.70;65.90
16267;DHT22;8241;48.786;9.250;2023-05-27T08:03:46;27.20;65.00
16267;DHT22;8241;48.786;9.250;2023-05-27T08:06:16;27.90;63.50
16267;DHT22;8241;48.786;9.250;2023-05-27T08:08:44;28.40;62.80
16267;DHT22;8241;48.786;9.250;2023-05-27T08:11:39;29.10;61.80
16267;DHT22;8241;48.786;9.250;2023-05-27T08:14:17;29.90;60.10
16267;DHT22;8241;48.786;9.250;2023-05-27T08:17:06;30.40;59.60
16267;DHT22;8241;48.786;9.250;2023-05-27T08:19:56;30.40;59.10
16267;DHT22;8241;48.786;9.250;2023-05-27T08:22:42;30.60;59.20
16267;DHT22;8241;48.786;9.250;2023-05-27T08:25:29;30.80;58.10
16267;DHT22;8241;48.786;9.250;2023-05-27T08:28:09;30.70;58.60
16267;DHT22;8241;48.786;9.250;2023-05-27T08:30:48;30.50;58.90
16267;DHT22;8241;48.786;9.250;2023-05-27T08:33:21;30.00;58.70
16267;DHT22;8241;48.786;9.250;2023-05-27T08:35:49;29.90;59.10
16267;DHT22;8241;48.786;9.250;2023-05-27T08:38:16;29.90;59.80
16267;DHT22;8241;48.786;9.250;2023-05-27T08:40:44;29.90;60.00
16267;DHT22;8241;48.786;9.250;2023-05-27T08:43:11;29.60;60.00
16267;DHT22;8241;48.786;9.250;2023-05-27T08:45:42;29.30;60.30
16267;DHT22;8241;48.786;9.250;2023-05-27T08:48:11;28.70;60.90
16267;DHT22;8241;48.786;9.250;2023-05-27T08:50:39;28.20;62.70
16267;DHT22;8241;48.786;9.250;2023-05-27T08:53:07;28.00;63.70
16267;DHT22;8241;48.786;9.250;2023-05-27T08:55:37;27.70;64.00
16267;DHT22;8241;48.786;9.250;2023-05-27T08:58:06;27.20;64.70
16267;DHT22;8241;48.786;9.250;2023-05-27T09:00:39;26.70;65.40
16267;DHT22;8241;48.786;9.250;2023-05-27T09:03:27;26.40;67.40
16267;DHT22;8241;48.786;9.250;2023-05-27T09:05:55;26.10;67.50
16267;DHT22;8241;48.786;9.250;2023-05-27T09:08:22;25.80;67.80
16267;DHT22;8241;48.786;9.250;2023-05-27T09:10:50;25.50;68.10
16267;DHT22;8241;48.786;9.250;2023-05-27T09:13:25;25.20;69.40
16267;DHT22;8241;48.786;9.250;2023-05-27T09:15:58;24.90;69.60
16267;DHT22;8241;48.786;9.250;2023-05-27T09:18:28;24.80;70.30
16267;DHT22;8241;48.786;9.250;2023-05-27T09:20:56;24.60;70.30
16267;DHT22;8241;48.786;9.250;2023-05-27T09:23:23;24.10;72.40
16267;DHT22;8241;48.786;9.250;2023-05-27T09:25:50;24.10;72.40
16267;DHT22;8241;48.786;9.250;2023-05-27T09:28:22;24.00;71.10
16267;DHT22;8241;48.786;9.250;2023-05-27T09:30:51;23.80;73.10
16267;DHT22;8241;48.786;9.250;2023-05-27T09:33:24;23.80;73.90
16267;DHT22;8241;48.786;9.250;2023-05-27T09:35:52;23.90;72.90
16267;DHT22;8241;48.786;9.250;2023-05-27T09:38:22;23.80;73.10
16267;DHT22;8241;48.786;9.250;2023-05-27T09:40:49;23.70;72.50
16267;DHT22;8241;48.786;9.250;2023-05-27T09:43:16;23.70;73.10
16267;DHT22;8241;48.786;9.250;2023-05-27T09:45:44;23.70;72.90
16267;DHT22;8241;48.786;9.250;2023-05-27T09:48:12;23.80;73.40
16267;DHT22;8241;48.786;9.250;2023-05-27T09:50:40;23.80;73.40
16267;DHT22;8241;48.786;9.250;2023-05-27T09:53:09;23.90;72.40
16267;DHT22;8241;48.786;9.250;2023-05-27T09:55:37;23.80;72.70
16267;DHT22;8241;48.786;9.250;2023-05-27T09:58:05;23.70;74.10
16267;DHT22;8241;48.786;9.250;2023-05-27T10:00:33;23.80;72.70
16267;DHT22;8241;48.786;9.250;2023-05-27T10:03:01;23.90;73.10
16267;DHT22;8241;48.786;9.250;2023-05-27T10:05:28;24.00;72.80
16267;DHT22;8241;48.786;9.250;2023-05-27T10:07:56;24.00;73.10
16267;DHT22;8241;48.786;9.250;2023-05-27T10:10:26;24.10;73.80
16267;DHT22;8241;48.786;9.250;2023-05-27T10:12:54;24.20;73.10
16267;DHT22;8241;48.786;9.250;2023-05-27T10:15:23;24.40;73.20
16267;DHT22;8241;48.786;9.250;2023-05-27T10:17:53;24.40;72.10
16267;DHT22;8241;48.786;9.250;2023-05-27T10:20:27;24.40;72.50
16267;DHT22;8241;48.786;9.250;2023-05-27T10:23:08;24.60;72.30
16267;DHT22;8241;48.786;9.250;2023-05-27T10:25:40;24.70;72.40
16267;DHT22;8241;48.786;9.250;2023-05-27T10:28:07;24.70;71.10
16267;DHT22;8241;48.786;9.250;2023-05-27T10:30:45;24.70;71.10
16267;DHT22;8241;48.786;9.250;2023-05-27T10:33:13;24.60;71.10
16267;DHT22;8241;48.786;9.250;2023-05-27T10:35:40;24.50;71.80
16267;DHT22;8241;48.786;9.250;2023-05-27T10:38:15;24.30;71.30
16267;DHT22;8241;48.786;9.250;2023-05-27T10:40:46;24.10;71.40
16267;DHT22;8241;48.786;9.250;2023-05-27T10:43:17;24.10;72.60
16267;DHT22;8241;48.786;9.250;2023-05-27T10:45:44;24.20;72.90
16267;DHT22;8241;48.786;9.250;2023-05-27T10:48:20;24.50;71.80
16267;DHT22;8241;48.786;9.250;2023-05-27T10:50:56;24.60;70.50
16267;DHT22;8241;48.786;9.250;2023-05-27T10:53:25;24.40;71.60
16267;DHT22;8241;48.786;9.250;2023-05-27T10:55:54;24.40;71.10
16267;DHT22;8241;48.786;9.250;2023-05-27T10:58:23;24.40;71.30
16267;DHT22;8241;48.786;9.250;2023-05-27T11:00:52;24.40;69.80
16267;DHT22;8241;48.786;9.250;2023-05-27T11:03:20;24.20;70.20
16267;DHT22;8241;48.786;9.250;2023-05-27T11:05:59;24.10;71.20
16267;DHT22;8241;48.786;9.250;2023-05-27T11:08:27;24.20;70.20
16267;DHT22;8241;48.786;9.250;2023-05-27T11:11:03;24.30;71.10
16267;DHT22;8241;48.786;9.250;2023-05-27T11:13:31;24.40;70.30
16267;DHT22;8241;48.786;9.250;2023-05-27T11:15:59;24.60;70.00
16267;DHT22;8241;48.786;9.250;2023-05-27T11:18:34;24.60;69.60
16267;DHT22;8241;48.786;9.250;2023-05-27T11:21:01;24.60;69.20
16267;DHT22;8241;48.786;9.250;2023-05-27T11:23:40;24.50;68.20
16267;DHT22;8241;48.786;9.250;2023-05-27T11:26:14;24.30;69.50
16267;DHT22;8241;48.786;9.250;2023-05-27T11:28:49;24.30;70.10
16267;DHT22;8241;48.786;9.250;2023-05-27T11:31:17;24.50;69.60
16267;DHT22;8241;48.786;9.250;2023-05-27T11:33:46;24.60;69.00
16267;DHT22;8241;48.786;9.250;2023-05-27T11:36:14;24.60;68.60
16267;DHT22;8241;48.786;9.250;2023-05-27T11:38:56;24.60;69.70
16267;DHT22;8241;48.786;9.250;2023-05-27T11:41:26;24.40;68.60
16267;DHT22;8241;48.786;9.250;2023-05-27T11:43:59;24.20;69.80
16267;DHT22;8241;48.786;9.250;2023-05-27T11:46:33;24.20;69.50
16267;DHT22;8241;48.786;9.250;2023-05-27T11:49:03;24.40;69.20
16267;DHT22;8241;48.786;9.250;2023-05-27T11:51:34;24.60;69.10
16267;DHT22;8241;48.786;9.250;2023-05-27T11:54:02;24.70;68.70
16267;DHT22;8241;48.786;9.250;2023-05-27T11:56:31;24.90;69.10
16267;DHT22;8241;48.786;9.250;2023-05-27T11:58:58;24.90;66.30
16267;DHT22;8241;48.786;9.250;2023-05-27T12:01:26;24.70;66.80
16267;DHT22;8241;48.786;9.250;2023-05-27T12:03:54;24.50;67.00
16267;DHT22;8241;48.786;9.250;2023-05-27T12:06:21;24.40;68.30
16267;DHT22;8241;48.786;9.250;2023-05-27T12:08:48;24.40;68.50
16267;DHT22;8241;48.786;9.250;2023-05-27T12:11:17;24.30;68.80
16267;DHT22;8241;48.786;9.250;2023-05-27T12:13:46;24.40;68.60
16267;DHT22;8241;48.786;9.250;2023-05-27T12:16:12;24.50;69.70
16267;DHT22;8241;48.786;9.250;2023-05-27T12:18:40;24.60;69.20
16267;DHT22;8241;48.786;9.250;2023-05-27T12:21:07;24.80;67.50
16267;DHT22;8241;48.786;9.250;2023-05-27T12:23:34;24.70;66.80
16267;DHT22;8241;48.786;9.250;2023-05-27T12:26:01;24.60;67.60
16267;DHT22;8241;48.786;9.250;2023-05-27T12:28:28;24.70;68.60
16267;DHT22;8241;48.786;9.250;2023-05-27T12:30:57;24.90;67.50
16267;DHT22;8241;48.786;9.250;2023-05-27T12:33:27;24.90;66.80
16267;DHT22;8241;48.786;9.250;2023-05-27T12:35:56;24.80;67.70
16267;DHT22;8241;48.786;9.250;2023-05-27T12:38:23;24.60;67.10
16267;DHT22;8241;48.786;9.250;2023-05-27T12:40:50;24.60;67.80
16267;DHT22;8241;48.786;9.250;2023-05-27T12:43:17;24.70;67.90
16267;DHT22;8241;48.786;9.250;2023-05-27T12:45:45;24.80;68.10
16267;DHT22;8241;48.786;9.250;2023-05-27T12:48:16;24.80;68.30
16267;DHT22;8241;48.786;9.250;2023-05-27T12:50:46;25.00;67.50
16267;DHT22;8241;48.786;9.250;2023-05-27T12:53:13;25.30;67.90
16267;DHT22;8241;48.786;9.250;2023-05-27T12:55:42;25.50;66.70
16267;DHT22;8241;48.786;9.250;2023-05-27T12:58:10;25.80;64.80
16267;DHT22;8241;48.786;9.250;2023-05-27T13:00:36;25.80;66.00
16267;DHT22;8241;48.786;9.250;2023-05-27T13:03:03;26.00;66.10
16267;DHT22;8241;48.786;9.250;2023-05-27T13:05:32;26.20;64.00
16267;DHT22;8241;48.786;9.250;2023-05-27T13:08:00;26.50;64.80
16267;DHT22;8241;48.786;9.250;2023-05-27T13:10:30;26.70;63.30
16267;DHT22;8241;48.786;9.250;2023-05-27T13:12:58;26.60;63.10
16267;DHT22;8241;48.786;9.250;2023-05-27T13:15:27;26.50;62.30
16267;DHT22;8241;48.786;9.250;2023-05-27T13:17:54;26.10;61.90
16267;DHT22;8241;48.786;9.250;2023-05-27T13:20:23;26.20;64.00
16267;DHT22;8241;48.786;9.250;2023-05-27T13:22:52;26.30;62.70
16267;DHT22;8241;48.786;9.250;2023-05-27T13:25:19;26.40;63.10
16267;DHT22;8241;48.786;9.250;2023-05-27T13:27:46;26.60;64.80
16267;DHT22;8241;48.786;9.250;2023-05-27T13:30:15;26.90;64.80
16267;DHT22;8241;48.786;9.250;2023-05-27T13:32:42;27.10;61.40
16267;DHT22;8241;48.786;9.250;2023-05-27T13:35:09;27.00;60.60
16267;DHT22;8241;48.786;9.250;2023-05-27T13:37:37;26.80;60.50
16267;DHT22;8241;48.786;9.250;2023-05-27T13:40:07;26.80;60.70
16267;DHT22;8241;48.786;9.250;2023-05-27T13:42:34;26.70;60.20
16267;DHT22;8241;48.786;9.250;2023-05-27T13:45:03;26.60;60.30
16267;DHT22;8241;48.786;9.250;2023-05-27T13:47:31;26.80;60.00
16267;DHT22;8241;48.786;9.250;2023-05-27T13:49:58;26.60;60.00
16267;DHT22;8241;48.786;9.250;2023-05-27T13:52:25;27.00;60.20
16267;DHT22;8241;48.786;9.250;2023-05-27T13:54:52;27.40;60.00
16267;DHT22;8241;48.786;9.250;2023-05-27T13:57:20;27.30;59.10
16267;DHT22;8241;48.786;9.250;2023-05-27T13:59:48;27.50;59.30
16267;DHT22;8241;48.786;9.250;2023-05-27T14:02:15;27.50;58.70
16267;DHT22;8241;48.786;9.250;2023-05-27T14:04:42;27.40;58.80
16267;DHT22;8241;48.786;9.250;2023-05-27T14:07:09;27.00;59.20
16267;DHT22;8241;48.786;9.250;2023-05-27T14:09:35;26.70;59.10
16267;DHT22;8241;48.786;9.250;2023-05-27T14:12:03;26.90;59.10
16267;DHT22;8241;48.786;9.250;2023-05-27T14:14:31;27.00;58.70
16267;DHT22;8241;48.786;9.250;2023-05-27T14:16:58;27.00;58.30
16267;DHT22;8241;48.786;9.250;2023-05-27T14:19:25;27.20;58.80
16267;DHT22;8241;48.786;9.250;2023-05-27T14:21:52;27.50;58.70
16267;DHT22;8241;48.786;9.250;2023-05-27T14:24:19;27.50;56.50
16267;DHT22;8241;48.786;9.250;2023-05-27T14:26:47;27.40;56.40
16267;DHT22;8241;48.786;9.250;2023-05-27T14:29:15;27.30;56.40
16267;DHT22;8241;48.786;9.250;2023-05-27T14:31:43;26.80;56.10
16267;DHT22;8241;48.786;9.250;2023-05-27T14:34:10;26.50;56.20
16267;DHT22;8241;48.786;9.250;2023-05-27T14:36:37;26.20;56.50
16267;DHT22;8241;48.786;9.250;2023-05-27T14:39:04;26.30;56.60
16267;DHT22;8241;48.786;9.250;2023-05-27T14:41:31;26.10;55.10
16267;DHT22;8241;48.786;9.250;2023-05-27T14:43:59;26.20;56.10
16267;DHT22;8241;48.786;9.250;2023-05-27T14:46:26;26.20;54.70
16267;DHT22;8241;48.786;9.250;2023-05-27T14:48:54;26.00;54.00
16267;DHT22;8241;48.786;9.250;2023-05-27T14:51:21;26.10;54.10
16267;DHT22;8241;48.786;9.250;2023-05-27T14:53:48;26.10;53.30
16267;DHT22;8241;48.786;9.250;2023-05-27T14:56:15;26.10;53.60
16267;DHT22;8241;48.786;9.250;2023-05-27T14:58:42;26.10;54.10
16267;DHT22;8241;48.786;9.250;2023-05-27T15:01:09;25.80;54.40
16267;DHT22;8241;48.786;9.250;2023-05-27T15:03:36;25.60;55.60
16267;DHT22;8241;48.786;9.250;2023-05-27T15:06:05;25.70;55.10
16267;DHT22;8241;48.786;9.250;2023-05-27T15:08:34;25.60;55.40
16267;DHT22;8241;48.786;9.250;2023-05-27T15:11:01;25.80;55.50
16267;DHT22;8241;48.786;9.250;2023-05-27T15:13:28;25.70;55.80
16267;DHT22;8241;48.786;9.250;2023-05-27T15:15:55;25.70;56.60
16267;DHT22;8241;48.786;9.250;2023-05-27T15:18:22;25.70;55.20
16267;DHT22;8241;48.786;9.250;2023-05-27T15:20:49;25.60;55.10
16267;DHT22;8241;48.786;9.250;2023-05-27T15:23:17;25.70;54.40
16267;DHT22;8241;48.786;9.250;2023-05-27T15:25:44;25.70;55.10
16267;DHT22;8241;48.786;9.250;2023-05-27T15:28:13;25.70;55.50
16267;DHT22;8241;48.786;9.250;2023-05-27T15:30:40;25.60;56.20
16267;DHT22;8241;48.786;9.250;2023-05-27T15:33:07;25.80;55.90
16267;DHT22;8241;48.786;9.250;2023-05-27T15:35:33;25.70;56.20
16267;DHT22;8241;48.786;9.250;2023-05-27T15:38:01;25.80;56.50
16267;DHT22;8241;48.786;9.250;2023-05-27T15:40:30;25.80;56.10
16267;DHT22;8241;48.786;9.250;2023-05-27T15:42:58;25.80;55.50
16267;DHT22;8241;48.786;9.250;2023-05-27T15:45:26;25.60;55.70
16267;DHT22;8241;48.786;9.250;2023-05-27T15:47:53;25.40;56.90
16267;DHT22;8241;48.786;9.250;2023-05-27T15:50:21;25.40;56.40
16267;DHT22;8241;48.786;9.250;2023-05-27T15:52:48;25.30;56.70
16267;DHT22;8241;48.786;9.250;2023-05-27T15:55:15;25.30;57.30
16267;DHT22;8241;48.786;9.250;2023-05-27T15:57:46;25.30;57.30
16267;DHT22;8241;48.786;9.250;2023-05-27T16:00:13;25.40;57.20